sensor_id;sensor_type;location;lat;lon;timestamp;P1;durP1;ratioP1;P2;durP2;ratioP2
26696;SDS011;14312;52.614;13.496;2023-07-09T00:00:49;2.17;;;1.88;;
26696;SDS011;14312;52.614;13.496;2023-07-09T00:03:36;2.30;;;1.90;;
26696;SDS011;14312;52.614;13.496;2023-07-09T00:06:22;2.10;;;1.98;;
26696;SDS011;14312;52.614;13.496;2023-07-09T00:09:12;1.88;;;1.70;;
26696;SDS011;14312;52.614;13.496;2023-07-09T00:12:00;1.92;;;1.70;;
26696;SDS011;14312;52.614;13.496;2023-07-09T00:14:46;2.15;;;1.90;;
26696;SDS011;14312;52.614;13.496;2023-07-09T00:17:32;2.97;;;1.80;;
26696;SDS011;14312;52.614;13.496;2023-07-09T00:20:20;3.00;;;1.67;;
26696;SDS011;14312;52.614;13.496;2023-07-09T00:23:06;1.83;;;1.73;;
26696;SDS011;14312;52.614;13.496;2023-07-09T00:25:52;1.83;;;1.70;;
26696;SDS011;14312;52.614;13.496;2023-07-09T00:28:38;2.38;;;1.70;;
26696;SDS011;14312;52.614;13.496;2023-07-09T00:31:23;2.13;;;1.80;;
26696;SDS011;14312;52.614;13.496;2023-07-09T00:34:10;2.00;;;1.77;;
26696;SDS011;14312;52.614;13.496;2023-07-09T00:36:58;2.03;;;1.83;;
26696;SDS011;14312;52.614;13.496;2023-07-09T00:39:44;1.75;;;1.65;;
26696;SDS011;14312;52.614;13.496;2023-07-09T00:42:30;2.10;;;1.90;;
26696;SDS011;14312;52.614;13.496;2023-07-09T00:45:20;1.88;;;1.77;;
26696;SDS011;14312;52.614;13.496;2023-07-09T00:48:11;1.55;;;1.45;;
26696;SDS011;14312;52.614;13.496;2023-07-09T00:51:01;2.05;;;1.85;;
26696;SDS011;14312;52.614;13.496;2023-07-09T00:53:48;1.65;;;1.55;;
26696;SDS011;14312;52.614;13.496;2023-07-09T00:56:38;2.33;;;1.67;;
26696;SDS011;14312;52.614;13.496;2023-07-09T00:59:28;2.10;;;1.80;;
26696;SDS011;14312;52.614;13.496;2023-07-09T01:02:17;1.70;;;1.60;;
26696;SDS011;14312;52.614;13.496;2023-07-09T01:05:08;1.77;;;1.67;;
26696;SDS011;14312;52.614;13.496;2023-07-09T01:07:56;2.25;;;1.80;;
26696;SDS011;14312;52.614;13.496;2023-07-09T01:10:43;1.67;;;1.58;;
26696;SDS011;14312;52.614;13.496;2023-07-09T01:13:29;2.00;;;1.85;;
26696;SDS011;14312;52.614;13.496;2023-07-09T01:16:18;1.70;;;1.60;;
26696;SDS011;14312;52.614;13.496;2023-07-09T01:19:06;1.65;;;1.55;;
26696;SDS011;14312;52.614;13.496;2023-07-09T01:21:56;1.75;;;1.65;;
26696;SDS011;14312;52.614;13.496;2023-07-09T01:27:47;1.95;;;1.85;;
26696;SDS011;14312;52.614;13.496;2023-07-09T01:30:37;3.20;;;1.50;;
26696;SDS011;14312;52.614;13.496;2023-07-09T01:33:25;1.70;;;1.60;;
26696;SDS011;14312;52.614;13.496;2023-07-09T01:36:13;1.80;;;1.70;;
26696;SDS011;14312;52.614;13.496;2023-07-09T01:39:08;2.22;;;1.50;;
26696;SDS011;14312;52.614;13.496;2023-07-09T01:41:54;2.03;;;1.58;;
26696;SDS011;14312;52.614;13.496;2023-07-09T01:44:41;1.67;;;1.58;;
26696;SDS011;14312;52.614;13.496;2023-07-09T01:47:26;2.00;;;1.88;;
26696;SDS011;14312;52.614;13.496;2023-07-09T01:50:12;1.95;;;1.63;;
26696;SDS011;14312;52.614;13.496;2023-07-09T01:52:58;1.73;;;1.63;;
26696;SDS011;14312;52.614;13.496;2023-07-09T01:55:45;1.70;;;1.60;;
26696;SDS011;14312;52.614;13.496;2023-07-09T01:58:31;1.70;;;1.60;;
26696;SDS011;14312;52.614;13.496;2023-07-09T02:01:17;1.73;;;1.55;;
26696;SDS011;14312;52.614;13.496;2023-07-09T02:04:05;1.65;;;1.55;;
26696;SDS011;14312;52.614;13.496;2023-07-09T02:06:51;2.35;;;1.60;;
26696;SDS011;14312;52.614;13.496;2023-07-09T02:09:37;2.17;;;1.98;;
26696;SDS011;14312;52.614;13.496;2023-07-09T02:12:22;1.58;;;1.48;;
26696;SDS011;14312;52.614;13.496;2023-07-09T02:15:09;1.88;;;1.73;;
26696;SDS011;14312;52.614;13.496;2023-07-09T02:17:55;1.80;;;1.70;;
26696;SDS011;14312;52.614;13.496;2023-07-09T02:20:41;1.80;;;1.70;;
26696;SDS011;14312;52.614;13.496;2023-07-09T02:23:27;1.88;;;1.60;;
26696;SDS011;14312;52.614;13.496;2023-07-09T02:26:13;2.00;;;1.73;;
26696;SDS011;14312;52.614;13.496;2023-07-09T02:28:59;1.75;;;1.65;;
26696;SDS011;14312;52.614;13.496;2023-07-09T02:31:45;1.83;;;1.73;;
26696;SDS011;14312;52.614;13.496;2023-07-09T02:34:33;1.77;;;1.67;;
26696;SDS011;14312;52.614;13.496;2023-07-09T02:37:21;2.10;;;1.90;;
26696;SDS011;14312;52.614;13.496;2023-07-09T02:40:11;1.70;;;1.60;;
26696;SDS011;14312;52.614;13.496;2023-07-09T02:42:58;1.80;;;1.48;;
26696;SDS011;14312;52.614;13.496;2023-07-09T02:45:44;1.83;;;1.73;;
26696;SDS011;14312;52.614;13.496;2023-07-09T02:48:30;1.90;;;1.63;;
26696;SDS011;14312;52.614;13.496;2023-07-09T02:51:16;2.17;;;1.95;;
26696;SDS011;14312;52.614;13.496;2023-07-09T02:54:02;1.55;;;1.45;;
26696;SDS011;14312;52.614;13.496;2023-07-09T02:56:49;1.90;;;1.70;;
26696;SDS011;14312;52.614;13.496;2023-07-09T02:59:35;2.47;;;1.73;;
26696;SDS011;14312;52.614;13.496;2023-07-09T03:02:21;1.65;;;1.55;;
26696;SDS011;14312;52.614;13.496;2023-07-09T03:05:07;1.65;;;1.55;;
26696;SDS011;14312;52.614;13.496;2023-07-09T03:07:56;3.45;;;2.00;;
26696;SDS011;14312;52.614;13.496;2023-07-09T03:10:42;1.75;;;1.65;;
26696;SDS011;14312;52.614;13.496;2023-07-09T03:13:28;1.92;;;1.70;;
26696;SDS011;14312;52.614;13.496;2023-07-09T03:16:14;2.30;;;1.98;;
26696;SDS011;14312;52.614;13.496;2023-07-09T03:19:01;2.40;;;1.92;;
26696;SDS011;14312;52.614;13.496;2023-07-09T03:21:48;2.85;;;1.80;;
26696;SDS011;14312;52.614;13.496;2023-07-09T03:24:34;2.30;;;1.70;;
26696;SDS011;14312;52.614;13.496;2023-07-09T03:27:20;2.10;;;1.77;;
26696;SDS011;14312;52.614;13.496;2023-07-09T03:30:06;1.70;;;1.60;;
26696;SDS011;14312;52.614;13.496;2023-07-09T03:32:52;2.47;;;2.10;;
26696;SDS011;14312;52.614;13.496;2023-07-09T03:35:38;1.90;;;1.80;;
26696;SDS011;14312;52.614;13.496;2023-07-09T03:38:24;2.10;;;1.85;;
26696;SDS011;14312;52.614;13.496;2023-07-09T03:41:10;3.47;;;1.90;;
26696;SDS011;14312;52.614;13.496;2023-07-09T03:43:56;2.15;;;1.95;;
26696;SDS011;14312;52.614;13.496;2023-07-09T03:46:42;1.83;;;1.73;;
26696;SDS011;14312;52.614;13.496;2023-07-09T03:49:28;3.30;;;1.90;;
26696;SDS011;14312;52.614;13.496;2023-07-09T03:52:13;2.22;;;1.98;;
26696;SDS011;14312;52.614;13.496;2023-07-09T03:55:00;2.40;;;2.03;;
26696;SDS011;14312;52.614;13.496;2023-07-09T03:57:49;2.30;;;2.10;;
26696;SDS011;14312;52.614;13.496;2023-07-09T04:00:35;2.67;;;2.03;;
26696;SDS011;14312;52.614;13.496;2023-07-09T04:03:21;1.80;;;1.70;;
26696;SDS011;14312;52.614;13.496;2023-07-09T04:06:08;1.90;;;1.80;;
26696;SDS011;14312;52.614;13.496;2023-07-09T04:08:54;1.95;;;1.83;;
26696;SDS011;14312;52.614;13.496;2023-07-09T04:11:39;2.40;;;2.20;;
26696;SDS011;14312;52.614;13.496;2023-07-09T04:14:25;2.15;;;1.95;;
26696;SDS011;14312;52.614;13.496;2023-07-09T04:17:11;2.25;;;2.05;;
26696;SDS011;14312;52.614;13.496;2023-07-09T04:19:57;2.72;;;2.20;;
26696;SDS011;14312;52.614;13.496;2023-07-09T04:22:44;2.22;;;2.00;;
26696;SDS011;14312;52.614;13.496;2023-07-09T04:25:30;1.98;;;1.88;;
26696;SDS011;14312;52.614;13.496;2023-07-09T04:28:16;2.03;;;1.90;;
26696;SDS011;14312;52.614;13.496;2023-07-09T04:31:01;2.53;;;2.30;;
26696;SDS011;14312;52.614;13.496;2023-07-09T04:33:48;2.05;;;1.85;;
26696;SDS011;14312;52.614;13.496;2023-07-09T04:36:34;2.33;;;2.05;;
26696;SDS011;14312;52.614;13.496;2023-07-09T04:39:21;2.13;;;1.92;;
26696;SDS011;14312;52.614;13.496;2023-07-09T04:42:07;2.33;;;2.13;;
26696;SDS011;14312;52.614;13.496;2023-07-09T04:44:59;2.22;;;2.03;;
26696;SDS011;14312;52.614;13.496;2023-07-09T04:47:45;2.30;;;2.03;;
26696;SDS011;14312;52.614;13.496;2023-07-09T04:50:31;3.38;;;2.30;;
26696;SDS011;14312;52.614;13.496;2023-07-09T04:53:17;2.28;;;2.08;;
26696;SDS011;14312;52.614;13.496;2023-07-09T04:56:04;2.85;;;2.15;;
26696;SDS011;14312;52.614;13.496;2023-07-09T04:58:50;2.30;;;2.10;;
26696;SDS011;14312;52.614;13.496;2023-07-09T05:01:35;2.30;;;2.10;;
26696;SDS011;14312;52.614;13.496;2023-07-09T05:04:21;2.55;;;2.20;;
26696;SDS011;14312;52.614;13.496;2023-07-09T05:07:07;2.35;;;2.15;;
26696;SDS011;14312;52.614;13.496;2023-07-09T05:09:53;2.67;;;2.47;;
26696;SDS011;14312;52.614;13.496;2023-07-09T05:12:49;2.40;;;2.20;;
26696;SDS011;14312;52.614;13.496;2023-07-09T05:15:39;2.47;;;2.00;;
26696;SDS011;14312;52.614;13.496;2023-07-09T05:18:26;2.17;;;2.08;;
26696;SDS011;14312;52.614;13.496;2023-07-09T05:21:12;2.45;;;1.90;;
26696;SDS011;14312;52.614;13.496;2023-07-09T05:23:58;2.25;;;2.03;;
26696;SDS011;14312;52.614;13.496;2023-07-09T05:26:44;2.10;;;1.90;;
26696;SDS011;14312;52.614;13.496;2023-07-09T05:29:32;2.20;;;1.95;;
26696;SDS011;14312;52.614;13.496;2023-07-09T05:32:18;2.05;;;1.92;;
26696;SDS011;14312;52.614;13.496;2023-07-09T05:35:04;2.25;;;2.05;;
26696;SDS011;14312;52.614;13.496;2023-07-09T05:37:51;2.55;;;2.35;;
26696;SDS011;14312;52.614;13.496;2023-07-09T05:40:38;2.42;;;2.22;;
26696;SDS011;14312;52.614;13.496;2023-07-09T05:43:24;2.40;;;2.20;;
26696;SDS011;14312;52.614;13.496;2023-07-09T05:46:11;2.17;;;1.98;;
26696;SDS011;14312;52.614;13.496;2023-07-09T05:48:58;1.98;;;1.88;;
26696;SDS011;14312;52.614;13.496;2023-07-09T05:51:44;1.88;;;1.70;;
26696;SDS011;14312;52.614;13.496;2023-07-09T05:54:31;2.08;;;1.92;;
26696;SDS011;14312;52.614;13.496;2023-07-09T05:57:17;2.25;;;2.05;;
26696;SDS011;14312;52.614;13.496;2023-07-09T06:00:03;2.28;;;1.90;;
26696;SDS011;14312;52.614;13.496;2023-07-09T06:02:50;2.22;;;2.03;;
26696;SDS011;14312;52.614;13.496;2023-07-09T06:05:37;3.10;;;2.00;;
26696;SDS011;14312;52.614;13.496;2023-07-09T06:08:23;2.45;;;2.00;;
26696;SDS011;14312;52.614;13.496;2023-07-09T06:11:09;1.90;;;1.80;;
26696;SDS011;14312;52.614;13.496;2023-07-09T06:13:54;2.42;;;1.83;;
26696;SDS011;14312;52.614;13.496;2023-07-09T06:16:41;1.90;;;1.80;;
26696;SDS011;14312;52.614;13.496;2023-07-09T06:19:27;1.92;;;1.80;;
26696;SDS011;14312;52.614;13.496;2023-07-09T06:22:12;2.17;;;1.98;;
26696;SDS011;14312;52.614;13.496;2023-07-09T06:24:58;2.22;;;2.03;;
26696;SDS011;14312;52.614;13.496;2023-07-09T06:27:44;1.73;;;1.63;;
26696;SDS011;14312;52.614;13.496;2023-07-09T06:30:30;2.30;;;2.03;;
26696;SDS011;14312;52.614;13.496;2023-07-09T06:33:16;1.83;;;1.73;;
26696;SDS011;14312;52.614;13.496;2023-07-09T06:36:04;2.10;;;2.00;;
26696;SDS011;14312;52.614;13.496;2023-07-09T06:38:50;3.03;;;2.10;;
26696;SDS011;14312;52.614;13.496;2023-07-09T06:41:36;2.10;;;2.00;;
26696;SDS011;14312;52.614;13.496;2023-07-09T06:44:24;2.10;;;1.90;;
26696;SDS011;14312;52.614;13.496;2023-07-09T06:47:11;1.92;;;1.83;;
26696;SDS011;14312;52.614;13.496;2023-07-09T06:49:57;2.63;;;2.00;;
26696;SDS011;14312;52.614;13.496;2023-07-09T06:52:43;2.20;;;2.00;;
26696;SDS011;14312;52.614;13.496;2023-07-09T06:55:29;2.30;;;2.10;;
26696;SDS011;14312;52.614;13.496;2023-07-09T06:58:16;2.00;;;1.90;;
26696;SDS011;14312;52.614;13.496;2023-07-09T07:01:03;3.03;;;2.20;;
26696;SDS011;14312;52.614;13.496;2023-07-09T07:03:50;3.00;;;2.20;;
26696;SDS011;14312;52.614;13.496;2023-07-09T07:06:36;1.88;;;1.77;;
26696;SDS011;14312;52.614;13.496;2023-07-09T07:09:22;3.20;;;2.30;;
26696;SDS011;14312;52.614;13.496;2023-07-09T07:12:09;2.25;;;2.05;;
26696;SDS011;14312;52.614;13.496;2023-07-09T07:14:55;2.00;;;1.90;;
26696;SDS011;14312;52.614;13.496;2023-07-09T07:17:41;2.10;;;1.92;;
26696;SDS011;14312;52.614;13.496;2023-07-09T07:20:27;2.35;;;1.80;;
26696;SDS011;14312;52.614;13.496;2023-07-09T07:23:15;2.22;;;2.03;;
26696;SDS011;14312;52.614;13.496;2023-07-09T07:26:00;1.85;;;1.75;;
26696;SDS011;14312;52.614;13.496;2023-07-09T07:28:46;2.05;;;1.95;;
26696;SDS011;14312;52.614;13.496;2023-07-09T07:31:32;3.08;;;2.17;;
26696;SDS011;14312;52.614;13.496;2023-07-09T07:34:18;2.22;;;2.03;;
26696;SDS011;14312;52.614;13.496;2023-07-09T07:37:04;2.38;;;2.20;;
26696;SDS011;14312;52.614;13.496;2023-07-09T07:39:50;2.40;;;2.20;;
26696;SDS011;14312;52.614;13.496;2023-07-09T07:42:36;2.17;;;2.03;;
26696;SDS011;14312;52.614;13.496;2023-07-09T07:45:22;2.38;;;2.17;;
26696;SDS011;14312;52.614;13.496;2023-07-09T07:48:08;2.53;;;2.33;;
26696;SDS011;14312;52.614;13.496;2023-07-09T07:51:01;2.22;;;2.10;;
26696;SDS011;14312;52.614;13.496;2023-07-09T07:53:48;2.60;;;2.40;;
26696;SDS011;14312;52.614;13.496;2023-07-09T07:56:34;2.28;;;2.13;;
26696;SDS011;14312;52.614;13.496;2023-07-09T07:59:20;2.33;;;2.00;;
26696;SDS011;14312;52.614;13.496;2023-07-09T08:02:08;2.20;;;2.10;;
26696;SDS011;14312;52.614;13.496;2023-07-09T08:04:57;2.30;;;2.10;;
26696;SDS011;14312;52.614;13.496;2023-07-09T08:07:43;3.20;;;2.50;;
26696;SDS011;14312;52.614;13.496;2023-07-09T08:10:29;2.92;;;2.42;;
26696;SDS011;14312;52.614;13.496;2023-07-09T08:13:15;2.30;;;2.10;;
26696;SDS011;14312;52.614;13.496;2023-07-09T08:16:00;2.38;;;2.17;;
26696;SDS011;14312;52.614;13.496;2023-07-09T08:18:46;2.50;;;2.30;;
26696;SDS011;14312;52.614;13.496;2023-07-09T08:21:32;2.47;;;2.28;;
26696;SDS011;14312;52.614;13.496;2023-07-09T08:24:18;2.60;;;2.28;;
26696;SDS011;14312;52.614;13.496;2023-07-09T08:27:06;2.13;;;1.95;;
26696;SDS011;14312;52.614;13.496;2023-07-09T08:29:52;2.50;;;2.30;;
26696;SDS011;14312;52.614;13.496;2023-07-09T08:32:38;2.47;;;2.28;;
26696;SDS011;14312;52.614;13.496;2023-07-09T08:35:24;2.20;;;2.10;;
26696;SDS011;14312;52.614;13.496;2023-07-09T08:38:10;2.47;;;2.28;;
26696;SDS011;14312;52.614;13.496;2023-07-09T08:41:00;2.33;;;2.15;;
26696;SDS011;14312;52.614;13.496;2023-07-09T08:47:00;2.13;;;2.03;;
26696;SDS011;14312;52.614;13.496;2023-07-09T08:50:04;2.40;;;2.20;;
26696;SDS011;14312;52.614;13.496;2023-07-09T08:52:56;2.10;;;1.90;;
26696;SDS011;14312;52.614;13.496;2023-07-09T08:55:43;2.60;;;2.40;;
26696;SDS011;14312;52.614;13.496;2023-07-09T08:58:31;2.30;;;2.10;;
26696;SDS011;14312;52.614;13.496;2023-07-09T09:01:19;2.25;;;2.15;;
26696;SDS011;14312;52.614;13.496;2023-07-09T09:04:41;2.20;;;2.00;;
26696;SDS011;14312;52.614;13.496;2023-07-09T09:07:42;2.30;;;2.10;;
26696;SDS011;14312;52.614;13.496;2023-07-09T09:10:31;2.15;;;1.95;;
26696;SDS011;14312;52.614;13.496;2023-07-09T09:13:20;2.40;;;2.20;;
26696;SDS011;14312;52.614;13.496;2023-07-09T09:16:12;1.95;;;1.85;;
26696;SDS011;14312;52.614;13.496;2023-07-09T09:19:18;1.98;;;1.88;;
26696;SDS011;14312;52.614;13.496;2023-07-09T09:22:08;2.10;;;1.85;;
26696;SDS011;14312;52.614;13.496;2023-07-09T09:28:02;2.00;;;1.90;;
26696;SDS011;14312;52.614;13.496;2023-07-09T09:30:49;2.35;;;2.15;;
26696;SDS011;14312;52.614;13.496;2023-07-09T09:33:41;2.03;;;1.88;;
26696;SDS011;14312;52.614;13.496;2023-07-09T09:36:29;2.33;;;2.15;;
26696;SDS011;14312;52.614;13.496;2023-07-09T09:39:16;2.50;;;2.20;;
26696;SDS011;14312;52.614;13.496;2023-07-09T09:42:02;2.10;;;2.00;;
26696;SDS011;14312;52.614;13.496;2023-07-09T09:44:55;2.08;;;1.98;;
26696;SDS011;14312;52.614;13.496;2023-07-09T09:47:41;2.40;;;2.20;;
26696;SDS011;14312;52.614;13.496;2023-07-09T09:50:30;2.10;;;2.00;;
26696;SDS011;14312;52.614;13.496;2023-07-09T09:53:19;2.20;;;2.10;;
26696;SDS011;14312;52.614;13.496;2023-07-09T09:56:11;2.47;;;2.28;;
26696;SDS011;14312;52.614;13.496;2023-07-09T09:59:00;2.72;;;2.53;;
26696;SDS011;14312;52.614;13.496;2023-07-09T10:01:55;2.33;;;2.15;;
26696;SDS011;14312;52.614;13.496;2023-07-09T10:04:43;2.67;;;2.40;;
26696;SDS011;14312;52.614;13.496;2023-07-09T10:07:32;2.30;;;2.20;;
26696;SDS011;14312;52.614;13.496;2023-07-09T10:10:23;2.40;;;2.20;;
26696;SDS011;14312;52.614;13.496;2023-07-09T10:16:38;2.35;;;2.17;;
26696;SDS011;14312;52.614;13.496;2023-07-09T10:19:45;2.28;;;2.08;;
26696;SDS011;14312;52.614;13.496;2023-07-09T10:22:43;2.72;;;2.53;;
26696;SDS011;14312;52.614;13.496;2023-07-09T10:39:38;2.40;;;2.20;;
26696;SDS011;14312;52.614;13.496;2023-07-09T10:42:22;2.40;;;2.20;;
26696;SDS011;14312;52.614;13.496;2023-07-09T10:45:29;2.50;;;2.22;;
26696;SDS011;14312;52.614;13.496;2023-07-09T10:48:41;3.22;;;2.15;;
26696;SDS011;14312;52.614;13.496;2023-07-09T10:51:37;2.42;;;2.20;;
26696;SDS011;14312;52.614;13.496;2023-07-09T10:54:32;2.20;;;2.00;;
26696;SDS011;14312;52.614;13.496;2023-07-09T11:00:18;2.58;;;2.17;;
26696;SDS011;14312;52.614;13.496;2023-07-09T11:06:22;2.00;;;1.90;;
26696;SDS011;14312;52.614;13.496;2023-07-09T11:12:09;2.33;;;2.13;;
26696;SDS011;14312;52.614;13.496;2023-07-09T11:15:07;4.60;;;2.38;;
26696;SDS011;14312;52.614;13.496;2023-07-09T11:18:03;2.25;;;2.13;;
26696;SDS011;14312;52.614;13.496;2023-07-09T11:20:55;2.50;;;2.35;;
26696;SDS011;14312;52.614;13.496;2023-07-09T11:23:49;2.55;;;2.40;;
26696;SDS011;14312;52.614;13.496;2023-07-09T11:26:37;2.13;;;1.92;;
26696;SDS011;14312;52.614;13.496;2023-07-09T11:29:34;2.42;;;2.17;;
26696;SDS011;14312;52.614;13.496;2023-07-09T11:32:31;2.22;;;2.13;;
26696;SDS011;14312;52.614;13.496;2023-07-09T11:35:20;3.67;;;2.40;;
26696;SDS011;14312;52.614;13.496;2023-07-09T11:38:14;2.30;;;2.10;;
26696;SDS011;14312;52.614;13.496;2023-07-09T11:44:21;2.45;;;2.33;;
26696;SDS011;14312;52.614;13.496;2023-07-09T11:56:23;2.00;;;1.90;;
26696;SDS011;14312;52.614;13.496;2023-07-09T11:59:11;2.30;;;2.20;;
26696;SDS011;14312;52.614;13.496;2023-07-09T12:01:57;3.40;;;2.60;;
26696;SDS011;14312;52.614;13.496;2023-07-09T12:04:50;2.42;;;2.33;;
26696;SDS011;14312;52.614;13.496;2023-07-09T12:07:37;2.45;;;2.20;;
26696;SDS011;14312;52.614;13.496;2023-07-09T12:10:24;2.47;;;2.05;;
26696;SDS011;14312;52.614;13.496;2023-07-09T12:13:12;2.47;;;2.33;;
26696;SDS011;14312;52.614;13.496;2023-07-09T12:15:59;2.60;;;2.40;;
26696;SDS011;14312;52.614;13.496;2023-07-09T12:18:45;2.88;;;2.67;;
26696;SDS011;14312;52.614;13.496;2023-07-09T12:21:33;2.63;;;2.42;;
26696;SDS011;14312;52.614;13.496;2023-07-09T12:24:24;2.85;;;2.65;;
26696;SDS011;14312;52.614;13.496;2023-07-09T12:30:09;2.65;;;2.45;;
26696;SDS011;14312;52.614;13.496;2023-07-09T12:32:57;2.67;;;2.47;;
26696;SDS011;14312;52.614;13.496;2023-07-09T12:35:43;2.38;;;2.17;;
26696;SDS011;14312;52.614;13.496;2023-07-09T12:38:32;3.50;;;2.63;;
26696;SDS011;14312;52.614;13.496;2023-07-09T12:41:31;2.88;;;2.67;;
26696;SDS011;14312;52.614;13.496;2023-07-09T12:44:23;2.50;;;2.30;;
26696;SDS011;14312;52.614;13.496;2023-07-09T12:47:13;2.60;;;2.40;;
26696;SDS011;14312;52.614;13.496;2023-07-09T12:50:01;2.50;;;2.30;;
26696;SDS011;14312;52.614;13.496;2023-07-09T12:53:00;2.78;;;2.58;;
26696;SDS011;14312;52.614;13.496;2023-07-09T12:56:14;2.60;;;2.40;;
26696;SDS011;14312;52.614;13.496;2023-07-09T12:59:03;2.65;;;2.45;;
26696;SDS011;14312;52.614;13.496;2023-07-09T13:05:04;2.70;;;2.50;;
26696;SDS011;14312;52.614;13.496;2023-07-09T13:08:02;2.85;;;2.65;;
26696;SDS011;14312;52.614;13.496;2023-07-09T13:10:48;2.88;;;2.67;;
26696;SDS011;14312;52.614;13.496;2023-07-09T13:13:36;3.00;;;2.75;;
26696;SDS011;14312;52.614;13.496;2023-07-09T13:16:22;3.33;;;3.03;;
26696;SDS011;14312;52.614;13.496;2023-07-09T13:19:08;2.80;;;2.60;;
26696;SDS011;14312;52.614;13.496;2023-07-09T13:21:54;2.95;;;2.75;;
26696;SDS011;14312;52.614;13.496;2023-07-09T13:24:40;2.63;;;2.45;;
26696;SDS011;14312;52.614;13.496;2023-07-09T13:27:26;2.92;;;2.72;;
26696;SDS011;14312;52.614;13.496;2023-07-09T13:30:12;2.70;;;2.50;;
26696;SDS011;14312;52.614;13.496;2023-07-09T13:32:58;2.97;;;2.78;;
26696;SDS011;14312;52.614;13.496;2023-07-09T13:35:45;2.53;;;2.25;;
26696;SDS011;14312;52.614;13.496;2023-07-09T13:38:32;3.10;;;2.72;;
26696;SDS011;14312;52.614;13.496;2023-07-09T13:41:18;2.47;;;2.28;;
26696;SDS011;14312;52.614;13.496;2023-07-09T13:44:11;4.32;;;2.47;;
26696;SDS011;14312;52.614;13.496;2023-07-09T13:47:00;2.70;;;2.50;;
26696;SDS011;14312;52.614;13.496;2023-07-09T13:49:46;2.78;;;2.58;;
26696;SDS011;14312;52.614;13.496;2023-07-09T13:52:33;2.70;;;2.50;;
26696;SDS011;14312;52.614;13.496;2023-07-09T13:55:21;2.65;;;2.45;;
26696;SDS011;14312;52.614;13.496;2023-07-09T13:58:09;2.33;;;2.13;;
26696;SDS011;14312;52.614;13.496;2023-07-09T14:01:01;2.45;;;2.25;;
26696;SDS011;14312;52.614;13.496;2023-07-09T14:03:56;2.65;;;2.38;;
26696;SDS011;14312;52.614;13.496;2023-07-09T14:06:46;2.97;;;2.67;;
26696;SDS011;14312;52.614;13.496;2023-07-09T14:09:32;3.60;;;3.30;;
26696;SDS011;14312;52.614;13.496;2023-07-09T14:12:19;3.83;;;3.40;;
26696;SDS011;14312;52.614;13.496;2023-07-09T14:15:09;3.15;;;2.95;;
26696;SDS011;14312;52.614;13.496;2023-07-09T14:17:58;2.80;;;2.60;;
26696;SDS011;14312;52.614;13.496;2023-07-09T14:20:44;2.90;;;2.70;;
26696;SDS011;14312;52.614;13.496;2023-07-09T14:23:30;2.80;;;2.60;;
26696;SDS011;14312;52.614;13.496;2023-07-09T14:26:16;2.60;;;2.40;;
26696;SDS011;14312;52.614;13.496;2023-07-09T14:29:02;2.72;;;2.53;;
26696;SDS011;14312;52.614;13.496;2023-07-09T14:31:48;3.05;;;2.85;;
26696;SDS011;14312;52.614;13.496;2023-07-09T14:34:35;2.65;;;2.20;;
26696;SDS011;14312;52.614;13.496;2023-07-09T14:37:24;2.97;;;2.65;;
26696;SDS011;14312;52.614;13.496;2023-07-09T14:40:12;2.88;;;2.58;;
26696;SDS011;14312;52.614;13.496;2023-07-09T14:42:59;3.17;;;2.97;;
26696;SDS011;14312;52.614;13.496;2023-07-09T14:45:46;3.92;;;3.30;;
26696;SDS011;14312;52.614;13.496;2023-07-09T14:48:33;3.22;;;3.03;;
26696;SDS011;14312;52.614;13.496;2023-07-09T14:51:19;3.88;;;3.58;;
26696;SDS011;14312;52.614;13.496;2023-07-09T14:54:21;3.55;;;3.30;;
26696;SDS011;14312;52.614;13.496;2023-07-09T14:57:18;3.50;;;3.20;;
26696;SDS011;14312;52.614;13.496;2023-07-09T15:00:06;3.42;;;3.13;;
26696;SDS011;14312;52.614;13.496;2023-07-09T15:02:58;3.08;;;2.85;;
26696;SDS011;14312;52.614;13.496;2023-07-09T15:05:44;3.00;;;2.80;;
26696;SDS011;14312;52.614;13.496;2023-07-09T15:08:30;2.90;;;2.70;;
26696;SDS011;14312;52.614;13.496;2023-07-09T15:11:15;2.90;;;2.70;;
26696;SDS011;14312;52.614;13.496;2023-07-09T15:14:01;2.80;;;2.60;;
26696;SDS011;14312;52.614;13.496;2023-07-09T15:16:47;3.20;;;3.00;;
26696;SDS011;14312;52.614;13.496;2023-07-09T15:19:35;3.15;;;2.95;;
26696;SDS011;14312;52.614;13.496;2023-07-09T15:22:26;3.60;;;3.30;;
26696;SDS011;14312;52.614;13.496;2023-07-09T15:25:19;3.80;;;3.50;;
26696;SDS011;14312;52.614;13.496;2023-07-09T15:28:05;3.03;;;2.72;;
26696;SDS011;14312;52.614;13.496;2023-07-09T15:30:54;2.80;;;2.60;;
26696;SDS011;14312;52.614;13.496;2023-07-09T15:33:40;2.50;;;2.35;;
26696;SDS011;14312;52.614;13.496;2023-07-09T15:36:26;2.92;;;2.72;;
26696;SDS011;14312;52.614;13.496;2023-07-09T15:39:11;2.95;;;2.67;;
26696;SDS011;14312;52.614;13.496;2023-07-09T15:41:57;2.60;;;2.40;;
26696;SDS011;14312;52.614;13.496;2023-07-09T15:44:43;3.08;;;2.88;;
26696;SDS011;14312;52.614;13.496;2023-07-09T15:47:29;2.67;;;2.47;;
26696;SDS011;14312;52.614;13.496;2023-07-09T15:50:16;2.78;;;2.58;;
26696;SDS011;14312;52.614;13.496;2023-07-09T15:53:07;2.35;;;2.20;;
26696;SDS011;14312;52.614;13.496;2023-07-09T15:56:00;2.78;;;2.58;;
26696;SDS011;14312;52.614;13.496;2023-07-09T15:58:48;2.42;;;2.22;;
26696;SDS011;14312;52.614;13.496;2023-07-09T16:01:36;2.53;;;2.33;;
26696;SDS011;14312;52.614;13.496;2023-07-09T16:04:22;3.55;;;3.25;;
26696;SDS011;14312;52.614;13.496;2023-07-09T16:07:09;3.08;;;2.88;;
26696;SDS011;14312;52.614;13.496;2023-07-09T16:09:56;2.97;;;2.78;;
26696;SDS011;14312;52.614;13.496;2023-07-09T16:12:42;3.10;;;2.90;;
26696;SDS011;14312;52.614;13.496;2023-07-09T16:15:32;3.17;;;2.88;;
26696;SDS011;14312;52.614;13.496;2023-07-09T16:18:18;3.20;;;2.90;;
26696;SDS011;14312;52.614;13.496;2023-07-09T16:21:04;3.50;;;2.88;;
26696;SDS011;14312;52.614;13.496;2023-07-09T16:23:52;3.08;;;2.88;;
26696;SDS011;14312;52.614;13.496;2023-07-09T16:26:39;2.65;;;2.45;;
26696;SDS011;14312;52.614;13.496;2023-07-09T16:29:26;2.97;;;2.78;;
26696;SDS011;14312;52.614;13.496;2023-07-09T16:32:17;2.78;;;2.58;;
26696;SDS011;14312;52.614;13.496;2023-07-09T16:35:03;2.92;;;2.72;;
26696;SDS011;14312;52.614;13.496;2023-07-09T16:37:49;2.22;;;2.10;;
26696;SDS011;14312;52.614;13.496;2023-07-09T16:40:35;2.50;;;2.30;;
26696;SDS011;14312;52.614;13.496;2023-07-09T16:43:22;2.60;;;2.40;;
26696;SDS011;14312;52.614;13.496;2023-07-09T16:46:13;2.47;;;2.30;;
26696;SDS011;14312;52.614;13.496;2023-07-09T16:49:07;2.60;;;2.40;;
26696;SDS011;14312;52.614;13.496;2023-07-09T16:52:21;2.65;;;2.45;;
26696;SDS011;14312;52.614;13.496;2023-07-09T16:55:15;2.63;;;2.42;;
26696;SDS011;14312;52.614;13.496;2023-07-09T16:58:03;2.58;;;2.38;;
26696;SDS011;14312;52.614;13.496;2023-07-09T17:00:50;2.45;;;2.25;;
26696;SDS011;14312;52.614;13.496;2023-07-09T17:03:36;2.85;;;2.65;;
26696;SDS011;14312;52.614;13.496;2023-07-09T17:06:21;2.47;;;2.25;;
26696;SDS011;14312;52.614;13.496;2023-07-09T17:09:08;2.67;;;2.28;;
26696;SDS011;14312;52.614;13.496;2023-07-09T17:11:57;2.60;;;2.40;;
26696;SDS011;14312;52.614;13.496;2023-07-09T17:14:44;2.60;;;2.17;;
26696;SDS011;14312;52.614;13.496;2023-07-09T17:17:30;2.60;;;2.40;;
26696;SDS011;14312;52.614;13.496;2023-07-09T17:20:16;2.80;;;2.60;;
26696;SDS011;14312;52.614;13.496;2023-07-09T17:23:04;2.60;;;2.40;;
26696;SDS011;14312;52.614;13.496;2023-07-09T17:25:50;2.80;;;2.60;;
26696;SDS011;14312;52.614;13.496;2023-07-09T17:28:36;2.53;;;2.15;;
26696;SDS011;14312;52.614;13.496;2023-07-09T17:31:21;2.70;;;2.50;;